Terminal Aerodrome Forecast
Issued by NWS

Current Version | Previous Version | Text Only | Print | Product List | Glossary Off
Versions: 1 2 3 4 5 6 7 8 9 10 11 12 13 14 15

667
FTUS41 KILN 231720
TAFLUK
TAF
KLUK 231720Z 2318/2418 05006KT P6SM FEW040 SCT250
     FM240800 VRB03KT 1SM BR FEW250
     FM241300 07004KT P6SM FEW250=

USA.gov is the U.S. government's official web portal to all federal, state and local government web resources and services.